sensor_id;sensor_type;location;lat;lon;timestamp;P1;durP1;ratioP1;P2;durP2;ratioP2
65545;SDS011;52177;55.968;37.498;2023-06-10T00:00:28;5.55;;;2.90;;
65545;SDS011;52177;55.968;37.498;2023-06-10T00:01:00;4.40;;;3.17;;
65545;SDS011;52177;55.968;37.498;2023-06-10T00:01:31;5.60;;;3.33;;
65545;SDS011;52177;55.968;37.498;2023-06-10T00:02:01;4.15;;;3.00;;
65545;SDS011;52177;55.968;37.498;2023-06-10T00:02:31;4.97;;;3.22;;
65545;SDS011;52177;55.968;37.498;2023-06-10T00:03:02;4.97;;;2.95;;
65545;SDS011;52177;55.968;37.498;2023-06-10T00:03:32;3.38;;;3.05;;
65545;SDS011;52177;55.968;37.498;2023-06-10T00:04:03;7.57;;;3.08;;
65545;SDS011;52177;55.968;37.498;2023-06-10T00:04:34;5.43;;;3.15;;
65545;SDS011;52177;55.968;37.498;2023-06-10T00:05:06;4.38;;;3.08;;
65545;SDS011;52177;55.968;37.498;2023-06-10T00:05:38;4.50;;;2.95;;
65545;SDS011;52177;55.968;37.498;2023-06-10T00:06:08;3.47;;;3.00;;
65545;SDS011;52177;55.968;37.498;2023-06-10T00:06:39;3.92;;;3.15;;
65545;SDS011;52177;55.968;37.498;2023-06-10T00:07:09;7.18;;;3.60;;
65545;SDS011;52177;55.968;37.498;2023-06-10T00:07:39;3.45;;;3.15;;
65545;SDS011;52177;55.968;37.498;2023-06-10T00:08:11;5.40;;;3.35;;
65545;SDS011;52177;55.968;37.498;2023-06-10T00:08:41;3.30;;;3.00;;
65545;SDS011;52177;55.968;37.498;2023-06-10T00:09:12;7.53;;;3.25;;
65545;SDS011;52177;55.968;37.498;2023-06-10T00:09:44;6.15;;;3.80;;
65545;SDS011;52177;55.968;37.498;2023-06-10T00:10:14;5.38;;;3.30;;
65545;SDS011;52177;55.968;37.498;2023-06-10T00:10:44;3.90;;;3.50;;
65545;SDS011;52177;55.968;37.498;2023-06-10T00:11:15;4.57;;;3.17;;
65545;SDS011;52177;55.968;37.498;2023-06-10T00:11:45;4.70;;;3.60;;
65545;SDS011;52177;55.968;37.498;2023-06-10T00:12:16;5.18;;;3.25;;
65545;SDS011;52177;55.968;37.498;2023-06-10T00:12:47;3.25;;;2.90;;
65545;SDS011;52177;55.968;37.498;2023-06-10T00:13:18;3.30;;;3.00;;
65545;SDS011;52177;55.968;37.498;2023-06-10T00:13:48;3.70;;;3.40;;
65545;SDS011;52177;55.968;37.498;2023-06-10T00:14:19;4.68;;;3.25;;
65545;SDS011;52177;55.968;37.498;2023-06-10T00:14:49;3.25;;;2.55;;
65545;SDS011;52177;55.968;37.498;2023-06-10T00:15:21;3.75;;;3.17;;
65545;SDS011;52177;55.968;37.498;2023-06-10T00:15:52;5.43;;;3.15;;
65545;SDS011;52177;55.968;37.498;2023-06-10T00:16:22;4.00;;;3.30;;
65545;SDS011;52177;55.968;37.498;2023-06-10T00:16:52;5.80;;;2.70;;
65545;SDS011;52177;55.968;37.498;2023-06-10T00:17:23;4.05;;;3.08;;
65545;SDS011;52177;55.968;37.498;2023-06-10T00:17:53;4.22;;;3.17;;
65545;SDS011;52177;55.968;37.498;2023-06-10T00:18:25;3.92;;;2.80;;
65545;SDS011;52177;55.968;37.498;2023-06-10T00:18:56;10.52;;;3.40;;
65545;SDS011;52177;55.968;37.498;2023-06-10T00:19:31;5.72;;;3.30;;
65545;SDS011;52177;55.968;37.498;2023-06-10T00:20:01;5.07;;;3.00;;
65545;SDS011;52177;55.968;37.498;2023-06-10T00:20:37;5.05;;;3.10;;
65545;SDS011;52177;55.968;37.498;2023-06-10T00:21:09;4.00;;;3.05;;
65545;SDS011;52177;55.968;37.498;2023-06-10T00:21:40;3.65;;;2.90;;
65545;SDS011;52177;55.968;37.498;2023-06-10T00:22:10;4.50;;;2.80;;
65545;SDS011;52177;55.968;37.498;2023-06-10T00:22:41;6.18;;;3.13;;
65545;SDS011;52177;55.968;37.498;2023-06-10T00:23:15;3.40;;;3.08;;
65545;SDS011;52177;55.968;37.498;2023-06-10T00:23:46;4.05;;;3.30;;
65545;SDS011;52177;55.968;37.498;2023-06-10T00:24:16;4.07;;;3.15;;
65545;SDS011;52177;55.968;37.498;2023-06-10T00:24:47;6.35;;;3.22;;
65545;SDS011;52177;55.968;37.498;2023-06-10T00:25:17;4.10;;;3.20;;
65545;SDS011;52177;55.968;37.498;2023-06-10T00:25:48;6.63;;;3.28;;
65545;SDS011;52177;55.968;37.498;2023-06-10T00:26:19;4.97;;;3.08;;
65545;SDS011;52177;55.968;37.498;2023-06-10T00:26:50;5.18;;;3.60;;
65545;SDS011;52177;55.968;37.498;2023-06-10T00:27:20;4.63;;;3.30;;
65545;SDS011;52177;55.968;37.498;2023-06-10T00:27:51;4.47;;;3.35;;
65545;SDS011;52177;55.968;37.498;2023-06-10T00:28:22;4.97;;;3.03;;
65545;SDS011;52177;55.968;37.498;2023-06-10T00:28:52;6.70;;;3.08;;
65545;SDS011;52177;55.968;37.498;2023-06-10T00:29:22;5.00;;;3.08;;
65545;SDS011;52177;55.968;37.498;2023-06-10T00:29:52;3.85;;;3.10;;
65545;SDS011;52177;55.968;37.498;2023-06-10T00:30:23;4.80;;;3.10;;
65545;SDS011;52177;55.968;37.498;2023-06-10T00:30:53;3.42;;;2.78;;
65545;SDS011;52177;55.968;37.498;2023-06-10T00:31:24;4.53;;;2.80;;
65545;SDS011;52177;55.968;37.498;2023-06-10T00:31:56;4.35;;;2.80;;
65545;SDS011;52177;55.968;37.498;2023-06-10T00:32:27;7.63;;;3.40;;
65545;SDS011;52177;55.968;37.498;2023-06-10T00:32:57;3.35;;;3.05;;
65545;SDS011;52177;55.968;37.498;2023-06-10T00:33:28;4.80;;;3.35;;
65545;SDS011;52177;55.968;37.498;2023-06-10T00:33:59;6.68;;;2.95;;
65545;SDS011;52177;55.968;37.498;2023-06-10T00:34:29;5.40;;;2.80;;
65545;SDS011;52177;55.968;37.498;2023-06-10T00:35:00;3.10;;;2.88;;
65545;SDS011;52177;55.968;37.498;2023-06-10T00:35:30;3.30;;;3.00;;
65545;SDS011;52177;55.968;37.498;2023-06-10T00:36:01;4.20;;;3.10;;
65545;SDS011;52177;55.968;37.498;2023-06-10T00:36:31;4.63;;;3.25;;
65545;SDS011;52177;55.968;37.498;2023-06-10T00:37:01;7.18;;;3.60;;
65545;SDS011;52177;55.968;37.498;2023-06-10T00:37:32;5.40;;;3.10;;
65545;SDS011;52177;55.968;37.498;2023-06-10T00:38:04;3.40;;;3.10;;
65545;SDS011;52177;55.968;37.498;2023-06-10T00:38:35;5.65;;;3.08;;
65545;SDS011;52177;55.968;37.498;2023-06-10T00:39:05;4.28;;;3.40;;
65545;SDS011;52177;55.968;37.498;2023-06-10T00:39:35;4.43;;;3.15;;
65545;SDS011;52177;55.968;37.498;2023-06-10T00:40:06;4.93;;;3.10;;
65545;SDS011;52177;55.968;37.498;2023-06-10T00:40:39;4.38;;;3.40;;
65545;SDS011;52177;55.968;37.498;2023-06-10T00:41:10;3.30;;;3.00;;
65545;SDS011;52177;55.968;37.498;2023-06-10T00:41:41;5.85;;;3.17;;
65545;SDS011;52177;55.968;37.498;2023-06-10T00:42:11;3.42;;;3.10;;
65545;SDS011;52177;55.968;37.498;2023-06-10T00:42:41;3.50;;;2.90;;
65545;SDS011;52177;55.968;37.498;2023-06-10T00:43:12;4.10;;;3.03;;
65545;SDS011;52177;55.968;37.498;2023-06-10T00:43:42;5.78;;;3.03;;
65545;SDS011;52177;55.968;37.498;2023-06-10T00:44:13;5.07;;;3.08;;
65545;SDS011;52177;55.968;37.498;2023-06-10T00:44:43;3.40;;;3.10;;
65545;SDS011;52177;55.968;37.498;2023-06-10T00:45:13;4.38;;;3.00;;
65545;SDS011;52177;55.968;37.498;2023-06-10T00:45:44;4.30;;;3.20;;
65545;SDS011;52177;55.968;37.498;2023-06-10T00:46:14;7.32;;;3.28;;
65545;SDS011;52177;55.968;37.498;2023-06-10T00:46:46;5.03;;;3.40;;
65545;SDS011;52177;55.968;37.498;2023-06-10T00:47:17;3.83;;;2.90;;
65545;SDS011;52177;55.968;37.498;2023-06-10T00:47:48;5.88;;;2.83;;
65545;SDS011;52177;55.968;37.498;2023-06-10T00:48:18;3.65;;;3.35;;
65545;SDS011;52177;55.968;37.498;2023-06-10T00:48:49;4.40;;;3.22;;
65545;SDS011;52177;55.968;37.498;2023-06-10T00:49:19;4.70;;;3.20;;
65545;SDS011;52177;55.968;37.498;2023-06-10T00:49:50;7.10;;;2.80;;
65545;SDS011;52177;55.968;37.498;2023-06-10T00:50:20;3.70;;;3.30;;
65545;SDS011;52177;55.968;37.498;2023-06-10T00:50:51;4.05;;;3.25;;
65545;SDS011;52177;55.968;37.498;2023-06-10T00:51:22;3.45;;;3.13;;
65545;SDS011;52177;55.968;37.498;2023-06-10T00:51:52;4.75;;;2.83;;
65545;SDS011;52177;55.968;37.498;2023-06-10T00:52:24;3.50;;;3.20;;
65545;SDS011;52177;55.968;37.498;2023-06-10T00:52:58;7.35;;;3.33;;
65545;SDS011;52177;55.968;37.498;2023-06-10T00:53:29;3.50;;;3.13;;
65545;SDS011;52177;55.968;37.498;2023-06-10T00:54:00;4.25;;;3.15;;
65545;SDS011;52177;55.968;37.498;2023-06-10T00:54:30;6.88;;;3.03;;
65545;SDS011;52177;55.968;37.498;2023-06-10T00:55:04;5.53;;;3.40;;
65545;SDS011;52177;55.968;37.498;2023-06-10T00:55:35;3.53;;;3.22;;
65545;SDS011;52177;55.968;37.498;2023-06-10T00:56:06;4.68;;;3.20;;
65545;SDS011;52177;55.968;37.498;2023-06-10T00:56:37;5.07;;;3.22;;
65545;SDS011;52177;55.968;37.498;2023-06-10T00:57:07;5.70;;;3.15;;
65545;SDS011;52177;55.968;37.498;2023-06-10T00:57:38;4.30;;;2.90;;
65545;SDS011;52177;55.968;37.498;2023-06-10T00:58:09;7.75;;;3.63;;
65545;SDS011;52177;55.968;37.498;2023-06-10T00:58:40;3.95;;;3.22;;
65545;SDS011;52177;55.968;37.498;2023-06-10T00:59:10;3.95;;;3.17;;
65545;SDS011;52177;55.968;37.498;2023-06-10T00:59:41;3.17;;;2.88;;
65545;SDS011;52177;55.968;37.498;2023-06-10T01:00:17;5.50;;;2.95;;
65545;SDS011;52177;55.968;37.498;2023-06-10T01:00:47;2.92;;;2.65;;
65545;SDS011;52177;55.968;37.498;2023-06-10T01:01:19;3.67;;;3.20;;
65545;SDS011;52177;55.968;37.498;2023-06-10T01:01:50;3.88;;;2.97;;
65545;SDS011;52177;55.968;37.498;2023-06-10T01:02:22;6.20;;;3.28;;
65545;SDS011;52177;55.968;37.498;2023-06-10T01:02:52;5.88;;;3.13;;
65545;SDS011;52177;55.968;37.498;2023-06-10T01:03:23;5.00;;;2.83;;
65545;SDS011;52177;55.968;37.498;2023-06-10T01:03:54;4.43;;;2.72;;
65545;SDS011;52177;55.968;37.498;2023-06-10T01:04:25;4.93;;;2.60;;
65545;SDS011;52177;55.968;37.498;2023-06-10T01:04:55;3.95;;;3.03;;
65545;SDS011;52177;55.968;37.498;2023-06-10T01:05:27;2.90;;;2.60;;
65545;SDS011;52177;55.968;37.498;2023-06-10T01:06:00;3.92;;;2.58;;
65545;SDS011;52177;55.968;37.498;2023-06-10T01:07:29;3.60;;;2.63;;
65545;SDS011;52177;55.968;37.498;2023-06-10T01:08:16;4.47;;;2.65;;
65545;SDS011;52177;55.968;37.498;2023-06-10T01:10:16;4.90;;;2.65;;
65545;SDS011;52177;55.968;37.498;2023-06-10T01:10:55;3.10;;;2.65;;
65545;SDS011;52177;55.968;37.498;2023-06-10T01:11:53;4.43;;;2.25;;
65545;SDS011;52177;55.968;37.498;2023-06-10T01:13:09;4.55;;;2.78;;
65545;SDS011;52177;55.968;37.498;2023-06-10T01:13:41;6.00;;;2.17;;
65545;SDS011;52177;55.968;37.498;2023-06-10T01:14:13;5.68;;;2.08;;
65545;SDS011;52177;55.968;37.498;2023-06-10T01:14:46;4.18;;;2.35;;
65545;SDS011;52177;55.968;37.498;2023-06-10T01:15:18;3.05;;;2.75;;
65545;SDS011;52177;55.968;37.498;2023-06-10T01:15:50;3.05;;;2.17;;
65545;SDS011;52177;55.968;37.498;2023-06-10T01:16:21;2.78;;;2.40;;
65545;SDS011;52177;55.968;37.498;2023-06-10T01:16:52;4.15;;;2.40;;
65545;SDS011;52177;55.968;37.498;2023-06-10T01:17:23;4.05;;;2.40;;
65545;SDS011;52177;55.968;37.498;2023-06-10T01:17:57;4.03;;;2.22;;
65545;SDS011;52177;55.968;37.498;2023-06-10T01:18:32;2.33;;;2.13;;
65545;SDS011;52177;55.968;37.498;2023-06-10T01:19:03;3.88;;;2.20;;
65545;SDS011;52177;55.968;37.498;2023-06-10T01:19:33;3.67;;;2.20;;
65545;SDS011;52177;55.968;37.498;2023-06-10T01:20:06;2.80;;;2.50;;
65545;SDS011;52177;55.968;37.498;2023-06-10T01:20:42;4.68;;;2.05;;
65545;SDS011;52177;55.968;37.498;2023-06-10T01:21:20;2.72;;;2.10;;
65545;SDS011;52177;55.968;37.498;2023-06-10T01:21:54;5.68;;;2.00;;
65545;SDS011;52177;55.968;37.498;2023-06-10T01:22:25;2.15;;;1.90;;
65545;SDS011;52177;55.968;37.498;2023-06-10T01:22:58;3.20;;;2.15;;
65545;SDS011;52177;55.968;37.498;2023-06-10T01:23:30;6.53;;;2.55;;
65545;SDS011;52177;55.968;37.498;2023-06-10T01:24:00;2.63;;;2.10;;
65545;SDS011;52177;55.968;37.498;2023-06-10T01:24:31;4.65;;;2.35;;
65545;SDS011;52177;55.968;37.498;2023-06-10T01:25:04;5.13;;;2.15;;
65545;SDS011;52177;55.968;37.498;2023-06-10T01:25:37;2.50;;;2.05;;
65545;SDS011;52177;55.968;37.498;2023-06-10T01:26:10;2.67;;;1.88;;
65545;SDS011;52177;55.968;37.498;2023-06-10T01:26:42;2.30;;;2.08;;
65545;SDS011;52177;55.968;37.498;2023-06-10T01:27:13;5.00;;;2.00;;
65545;SDS011;52177;55.968;37.498;2023-06-10T01:27:49;4.65;;;2.13;;
65545;SDS011;52177;55.968;37.498;2023-06-10T01:29:18;2.22;;;1.70;;
65545;SDS011;52177;55.968;37.498;2023-06-10T01:29:54;2.05;;;1.75;;
65545;SDS011;52177;55.968;37.498;2023-06-10T01:30:39;2.97;;;2.05;;
65545;SDS011;52177;55.968;37.498;2023-06-10T01:32:17;2.92;;;1.90;;
65545;SDS011;52177;55.968;37.498;2023-06-10T01:32:52;3.10;;;1.92;;
65545;SDS011;52177;55.968;37.498;2023-06-10T01:33:25;2.15;;;1.95;;
65545;SDS011;52177;55.968;37.498;2023-06-10T01:33:59;3.10;;;2.10;;
65545;SDS011;52177;55.968;37.498;2023-06-10T01:34:32;2.45;;;2.10;;
65545;SDS011;52177;55.968;37.498;2023-06-10T01:35:03;3.17;;;2.03;;
65545;SDS011;52177;55.968;37.498;2023-06-10T01:35:36;2.60;;;2.28;;
65545;SDS011;52177;55.968;37.498;2023-06-10T01:36:07;2.30;;;2.10;;
65545;SDS011;52177;55.968;37.498;2023-06-10T01:36:38;5.13;;;2.08;;
65545;SDS011;52177;55.968;37.498;2023-06-10T01:37:14;3.80;;;2.20;;
65545;SDS011;52177;55.968;37.498;2023-06-10T01:37:47;4.05;;;1.80;;
65545;SDS011;52177;55.968;37.498;2023-06-10T01:38:19;2.45;;;1.73;;
65545;SDS011;52177;55.968;37.498;2023-06-10T01:38:51;2.55;;;1.83;;
65545;SDS011;52177;55.968;37.498;2023-06-10T01:39:23;3.80;;;2.10;;
65545;SDS011;52177;55.968;37.498;2023-06-10T01:39:56;2.58;;;2.00;;
65545;SDS011;52177;55.968;37.498;2023-06-10T01:40:28;5.95;;;2.25;;
65545;SDS011;52177;55.968;37.498;2023-06-10T01:40:59;2.35;;;1.80;;
65545;SDS011;52177;55.968;37.498;2023-06-10T01:41:31;2.90;;;1.90;;
65545;SDS011;52177;55.968;37.498;2023-06-10T01:42:02;3.17;;;2.00;;
65545;SDS011;52177;55.968;37.498;2023-06-10T01:42:34;2.30;;;2.00;;
65545;SDS011;52177;55.968;37.498;2023-06-10T01:43:05;4.65;;;2.00;;
65545;SDS011;52177;55.968;37.498;2023-06-10T01:43:37;3.08;;;1.83;;
65545;SDS011;52177;55.968;37.498;2023-06-10T01:44:08;3.15;;;1.80;;
65545;SDS011;52177;55.968;37.498;2023-06-10T01:44:39;2.38;;;1.60;;
65545;SDS011;52177;55.968;37.498;2023-06-10T01:45:10;3.97;;;1.90;;
65545;SDS011;52177;55.968;37.498;2023-06-10T01:45:40;3.58;;;2.28;;
65545;SDS011;52177;55.968;37.498;2023-06-10T01:46:11;2.03;;;1.83;;
65545;SDS011;52177;55.968;37.498;2023-06-10T01:46:41;3.45;;;1.83;;
65545;SDS011;52177;55.968;37.498;2023-06-10T01:47:11;2.08;;;1.70;;
65545;SDS011;52177;55.968;37.498;2023-06-10T01:47:42;3.10;;;2.20;;
65545;SDS011;52177;55.968;37.498;2023-06-10T01:48:12;2.53;;;1.63;;
65545;SDS011;52177;55.968;37.498;2023-06-10T01:48:42;2.58;;;1.63;;
65545;SDS011;52177;55.968;37.498;2023-06-10T01:49:13;2.08;;;1.88;;
65545;SDS011;52177;55.968;37.498;2023-06-10T01:49:43;2.90;;;1.60;;
65545;SDS011;52177;55.968;37.498;2023-06-10T01:50:13;5.88;;;2.00;;
65545;SDS011;52177;55.968;37.498;2023-06-10T01:50:44;2.17;;;1.92;;
65545;SDS011;52177;55.968;37.498;2023-06-10T01:51:15;2.17;;;1.70;;
65545;SDS011;52177;55.968;37.498;2023-06-10T01:51:45;3.88;;;1.92;;
65545;SDS011;52177;55.968;37.498;2023-06-10T01:52:16;1.92;;;1.80;;
65545;SDS011;52177;55.968;37.498;2023-06-10T01:52:46;4.53;;;1.70;;
65545;SDS011;52177;55.968;37.498;2023-06-10T01:53:17;2.10;;;1.60;;
65545;SDS011;52177;55.968;37.498;2023-06-10T01:53:47;2.55;;;1.73;;
65545;SDS011;52177;55.968;37.498;2023-06-10T01:54:17;3.47;;;1.67;;
65545;SDS011;52177;55.968;37.498;2023-06-10T01:54:48;2.33;;;1.75;;
65545;SDS011;52177;55.968;37.498;2023-06-10T01:55:18;3.17;;;1.92;;
65545;SDS011;52177;55.968;37.498;2023-06-10T01:55:48;5.75;;;2.22;;
65545;SDS011;52177;55.968;37.498;2023-06-10T01:56:19;6.00;;;1.70;;
65545;SDS011;52177;55.968;37.498;2023-06-10T01:56:51;3.22;;;1.50;;
65545;SDS011;52177;55.968;37.498;2023-06-10T01:57:21;2.78;;;1.55;;
65545;SDS011;52177;55.968;37.498;2023-06-10T01:57:51;1.90;;;1.70;;
65545;SDS011;52177;55.968;37.498;2023-06-10T01:58:22;1.85;;;1.75;;
65545;SDS011;52177;55.968;37.498;2023-06-10T01:58:52;2.20;;;1.88;;
65545;SDS011;52177;55.968;37.498;2023-06-10T01:59:25;1.70;;;1.60;;
65545;SDS011;52177;55.968;37.498;2023-06-10T01:59:56;3.80;;;1.70;;
65545;SDS011;52177;55.968;37.498;2023-06-10T02:00:26;2.50;;;1.75;;
65545;SDS011;52177;55.968;37.498;2023-06-10T02:00:56;4.13;;;1.73;;
65545;SDS011;52177;55.968;37.498;2023-06-10T02:01:27;1.83;;;1.58;;
65545;SDS011;52177;55.968;37.498;2023-06-10T02:01:58;2.05;;;1.85;;
65545;SDS011;52177;55.968;37.498;2023-06-10T02:02:29;3.78;;;1.73;;
65545;SDS011;52177;55.968;37.498;2023-06-10T02:02:59;2.83;;;1.60;;
65545;SDS011;52177;55.968;37.498;2023-06-10T02:03:29;6.85;;;1.90;;
65545;SDS011;52177;55.968;37.498;2023-06-10T02:04:00;1.70;;;1.60;;
65545;SDS011;52177;55.968;37.498;2023-06-10T02:04:30;3.55;;;2.00;;
65545;SDS011;52177;55.968;37.498;2023-06-10T02:05:01;3.75;;;1.67;;
65545;SDS011;52177;55.968;37.498;2023-06-10T02:05:31;2.22;;;1.83;;
65545;SDS011;52177;55.968;37.498;2023-06-10T02:06:02;3.15;;;1.85;;
65545;SDS011;52177;55.968;37.498;2023-06-10T02:06:32;2.20;;;1.77;;
65545;SDS011;52177;55.968;37.498;2023-06-10T02:07:03;2.10;;;1.67;;
65545;SDS011;52177;55.968;37.498;2023-06-10T02:07:34;2.67;;;1.60;;
65545;SDS011;52177;55.968;37.498;2023-06-10T02:08:04;5.20;;;1.85;;
65545;SDS011;52177;55.968;37.498;2023-06-10T02:08:35;2.08;;;1.70;;
65545;SDS011;52177;55.968;37.498;2023-06-10T02:09:05;2.88;;;1.65;;
65545;SDS011;52177;55.968;37.498;2023-06-10T02:09:36;2.67;;;1.77;;
65545;SDS011;52177;55.968;37.498;2023-06-10T02:10:06;2.35;;;1.58;;
65545;SDS011;52177;55.968;37.498;2023-06-10T02:10:37;1.90;;;1.60;;
65545;SDS011;52177;55.968;37.498;2023-06-10T02:11:08;1.83;;;1.52;;
65545;SDS011;52177;55.968;37.498;2023-06-10T02:11:38;1.65;;;1.50;;
65545;SDS011;52177;55.968;37.498;2023-06-10T02:12:09;1.88;;;1.77;;
65545;SDS011;52177;55.968;37.498;2023-06-10T02:12:40;2.75;;;1.92;;
65545;SDS011;52177;55.968;37.498;2023-06-10T02:13:10;2.70;;;1.63;;
65545;SDS011;52177;55.968;37.498;2023-06-10T02:13:40;2.65;;;1.80;;
65545;SDS011;52177;55.968;37.498;2023-06-10T02:14:11;2.08;;;1.58;;
65545;SDS011;52177;55.968;37.498;2023-06-10T02:14:41;2.00;;;1.70;;
65545;SDS011;52177;55.968;37.498;2023-06-10T02:15:11;2.47;;;1.80;;
65545;SDS011;52177;55.968;37.498;2023-06-10T02:15:42;1.60;;;1.50;;
65545;SDS011;52177;55.968;37.498;2023-06-10T02:16:12;1.48;;;1.38;;
65545;SDS011;52177;55.968;37.498;2023-06-10T02:16:43;2.92;;;1.60;;
65545;SDS011;52177;55.968;37.498;2023-06-10T02:17:16;2.35;;;1.70;;
65545;SDS011;52177;55.968;37.498;2023-06-10T02:17:47;2.42;;;1.70;;
65545;SDS011;52177;55.968;37.498;2023-06-10T02:18:19;3.65;;;1.90;;
65545;SDS011;52177;55.968;37.498;2023-06-10T02:18:50;3.22;;;1.98;;
65545;SDS011;52177;55.968;37.498;2023-06-10T02:19:22;3.47;;;1.95;;
65545;SDS011;52177;55.968;37.498;2023-06-10T02:19:53;2.70;;;1.40;;
65545;SDS011;52177;55.968;37.498;2023-06-10T02:20:23;2.97;;;1.70;;
65545;SDS011;52177;55.968;37.498;2023-06-10T02:20:54;1.90;;;1.52;;
65545;SDS011;52177;55.968;37.498;2023-06-10T02:21:24;3.88;;;1.60;;
65545;SDS011;52177;55.968;37.498;2023-06-10T02:21:54;3.83;;;1.80;;
65545;SDS011;52177;55.968;37.498;2023-06-10T02:22:25;3.30;;;1.60;;
65545;SDS011;52177;55.968;37.498;2023-06-10T02:22:55;2.45;;;1.30;;
65545;SDS011;52177;55.968;37.498;2023-06-10T02:23:25;4.50;;;1.50;;
65545;SDS011;52177;55.968;37.498;2023-06-10T02:23:56;2.13;;;1.50;;
65545;SDS011;52177;55.968;37.498;2023-06-10T02:24:26;3.17;;;1.70;;
65545;SDS011;52177;55.968;37.498;2023-06-10T02:24:56;1.55;;;1.45;;
65545;SDS011;52177;55.968;37.498;2023-06-10T02:25:27;3.38;;;1.95;;
65545;SDS011;52177;55.968;37.498;2023-06-10T02:25:57;4.25;;;1.60;;
65545;SDS011;52177;55.968;37.498;2023-06-10T02:26:27;5.50;;;1.80;;
65545;SDS011;52177;55.968;37.498;2023-06-10T02:26:58;3.45;;;1.67;;
65545;SDS011;52177;55.968;37.498;2023-06-10T02:27:30;1.63;;;1.52;;
65545;SDS011;52177;55.968;37.498;2023-06-10T02:28:01;4.95;;;1.70;;
65545;SDS011;52177;55.968;37.498;2023-06-10T02:28:33;1.63;;;1.52;;
65545;SDS011;52177;55.968;37.498;2023-06-10T02:29:03;3.25;;;2.42;;
65545;SDS011;52177;55.968;37.498;2023-06-10T02:29:34;3.55;;;1.42;;
65545;SDS011;52177;55.968;37.498;2023-06-10T02:30:05;1.60;;;1.48;;
65545;SDS011;52177;55.968;37.498;2023-06-10T02:30:38;3.47;;;1.60;;
65545;SDS011;52177;55.968;37.498;2023-06-10T02:31:10;2.00;;;1.60;;
65545;SDS011;52177;55.968;37.498;2023-06-10T02:31:40;2.75;;;2.00;;
65545;SDS011;52177;55.968;37.498;2023-06-10T02:32:11;1.98;;;1.63;;
65545;SDS011;52177;55.968;37.498;2023-06-10T02:32:41;3.47;;;1.85;;
65545;SDS011;52177;55.968;37.498;2023-06-10T02:33:11;2.50;;;1.88;;
65545;SDS011;52177;55.968;37.498;2023-06-10T02:33:42;4.13;;;1.63;;
65545;SDS011;52177;55.968;37.498;2023-06-10T02:34:13;3.28;;;1.60;;
65545;SDS011;52177;55.968;37.498;2023-06-10T02:34:44;3.28;;;1.60;;
65545;SDS011;52177;55.968;37.498;2023-06-10T02:35:14;1.83;;;1.65;;
65545;SDS011;52177;55.968;37.498;2023-06-10T02:35:45;1.95;;;1.60;;
65545;SDS011;52177;55.968;37.498;2023-06-10T02:36:16;3.90;;;1.60;;
65545;SDS011;52177;55.968;37.498;2023-06-10T02:36:46;3.95;;;1.95;;
65545;SDS011;52177;55.968;37.498;2023-06-10T02:37:19;2.13;;;1.77;;
65545;SDS011;52177;55.968;37.498;2023-06-10T02:37:50;3.85;;;1.92;;
65545;SDS011;52177;55.968;37.498;2023-06-10T02:38:20;3.08;;;1.73;;
65545;SDS011;52177;55.968;37.498;2023-06-10T02:38:51;3.40;;;2.30;;
65545;SDS011;52177;55.968;37.498;2023-06-10T02:39:21;2.35;;;2.15;;
65545;SDS011;52177;55.968;37.498;2023-06-10T02:39:52;2.30;;;2.10;;
65545;SDS011;52177;55.968;37.498;2023-06-10T02:40:22;2.97;;;1.80;;
65545;SDS011;52177;55.968;37.498;2023-06-10T02:40:52;2.35;;;1.50;;
65545;SDS011;52177;55.968;37.498;2023-06-10T02:41:23;4.30;;;1.65;;
65545;SDS011;52177;55.968;37.498;2023-06-10T02:41:54;3.20;;;1.63;;
65545;SDS011;52177;55.968;37.498;2023-06-10T02:42:25;4.97;;;1.80;;
65545;SDS011;52177;55.968;37.498;2023-06-10T02:42:55;4.00;;;1.70;;
65545;SDS011;52177;55.968;37.498;2023-06-10T02:43:27;3.00;;;1.75;;
65545;SDS011;52177;55.968;37.498;2023-06-10T02:43:58;2.20;;;1.40;;
65545;SDS011;52177;55.968;37.498;2023-06-10T02:44:28;1.85;;;1.40;;
65545;SDS011;52177;55.968;37.498;2023-06-10T02:44:58;2.20;;;1.60;;
65545;SDS011;52177;55.968;37.498;2023-06-10T02:45:29;2.80;;;1.60;;
65545;SDS011;52177;55.968;37.498;2023-06-10T02:45:59;3.30;;;1.50;;
65545;SDS011;52177;55.968;37.498;2023-06-10T02:46:29;1.60;;;1.50;;
65545;SDS011;52177;55.968;37.498;2023-06-10T02:47:00;4.47;;;1.77;;
65545;SDS011;52177;55.968;37.498;2023-06-10T02:47:30;3.17;;;1.58;;
65545;SDS011;52177;55.968;37.498;2023-06-10T02:48:01;2.10;;;1.90;;
65545;SDS011;52177;55.968;37.498;2023-06-10T02:48:31;3.33;;;1.55;;
65545;SDS011;52177;55.968;37.498;2023-06-10T02:49:01;4.10;;;1.80;;
65545;SDS011;52177;55.968;37.498;2023-06-10T02:49:32;4.32;;;2.20;;
65545;SDS011;52177;55.968;37.498;2023-06-10T02:50:02;2.50;;;1.48;;
65545;SDS011;52177;55.968;37.498;2023-06-10T02:50:33;2.42;;;1.42;;
65545;SDS011;52177;55.968;37.498;2023-06-10T02:51:04;2.22;;;1.70;;
65545;SDS011;52177;55.968;37.498;2023-06-10T02:51:34;2.22;;;1.80;;
65545;SDS011;52177;55.968;37.498;2023-06-10T02:52:05;2.85;;;1.75;;
65545;SDS011;52177;55.968;37.498;2023-06-10T02:52:38;2.47;;;1.63;;
65545;SDS011;52177;55.968;37.498;2023-06-10T02:53:08;2.97;;;1.60;;
65545;SDS011;52177;55.968;37.498;2023-06-10T02:53:38;1.73;;;1.63;;
65545;SDS011;52177;55.968;37.498;2023-06-10T02:54:09;5.15;;;1.67;;
65545;SDS011;52177;55.968;37.498;2023-06-10T02:54:39;7.50;;;1.63;;
65545;SDS011;52177;55.968;37.498;2023-06-10T02:55:09;2.83;;;1.38;;
65545;SDS011;52177;55.968;37.498;2023-06-10T02:55:40;1.92;;;1.60;;
65545;SDS011;52177;55.968;37.498;2023-06-10T02:56:11;2.45;;;1.40;;
65545;SDS011;52177;55.968;37.498;2023-06-10T02:56:42;2.42;;;1.60;;
65545;SDS011;52177;55.968;37.498;2023-06-10T02:57:12;3.53;;;1.45;;
65545;SDS011;52177;55.968;37.498;2023-06-10T02:57:44;2.10;;;1.70;;
65545;SDS011;52177;55.968;37.498;2023-06-10T02:58:14;2.20;;;1.63;;
65545;SDS011;52177;55.968;37.498;2023-06-10T02:58:45;3.03;;;1.58;;
65545;SDS011;52177;55.968;37.498;2023-06-10T02:59:15;5.10;;;1.55;;
65545;SDS011;52177;55.968;37.498;2023-06-10T02:59:46;1.70;;;1.42;;
65545;SDS011;52177;55.968;37.498;2023-06-10T03:00:16;2.22;;;1.55;;
65545;SDS011;52177;55.968;37.498;2023-06-10T03:00:50;2.25;;;1.63;;
65545;SDS011;52177;55.968;37.498;2023-06-10T03:01:20;2.20;;;1.70;;
65545;SDS011;52177;55.968;37.498;2023-06-10T03:01:50;2.63;;;1.50;;
65545;SDS011;52177;55.968;37.498;2023-06-10T03:02:21;1.75;;;1.60;;
65545;SDS011;52177;55.968;37.498;2023-06-10T03:02:51;3.08;;;1.83;;
65545;SDS011;52177;55.968;37.498;2023-06-10T03:03:21;2.47;;;1.70;;
65545;SDS011;52177;55.968;37.498;2023-06-10T03:03:53;1.60;;;1.50;;
65545;SDS011;52177;55.968;37.498;2023-06-10T03:04:26;2.80;;;1.60;;
65545;SDS011;52177;55.968;37.498;2023-06-10T03:04:58;2.15;;;1.70;;
65545;SDS011;52177;55.968;37.498;2023-06-10T03:05:29;3.47;;;1.75;;
65545;SDS011;52177;55.968;37.498;2023-06-10T03:05:59;2.72;;;1.70;;
65545;SDS011;52177;55.968;37.498;2023-06-10T03:06:31;1.58;;;1.25;;
65545;SDS011;52177;55.968;37.498;2023-06-10T03:07:03;6.35;;;1.55;;
65545;SDS011;52177;55.968;37.498;2023-06-10T03:07:37;3.38;;;1.35;;
65545;SDS011;52177;55.968;37.498;2023-06-10T03:08:07;3.80;;;1.50;;
65545;SDS011;52177;55.968;37.498;2023-06-10T03:08:38;2.13;;;1.50;;
65545;SDS011;52177;55.968;37.498;2023-06-10T03:09:09;2.88;;;1.70;;
65545;SDS011;52177;55.968;37.498;2023-06-10T03:09:39;2.50;;;1.52;;
65545;SDS011;52177;55.968;37.498;2023-06-10T03:10:10;4.15;;;1.50;;
65545;SDS011;52177;55.968;37.498;2023-06-10T03:10:40;3.17;;;1.25;;